Time;durP1;ratioP1;P1;durP2;ratioP2;P2;SDS_P1;SDS_P2;PMS_P1;PMS_P2;Temp;Humidity;BMP_temperature;BMP_pressure;BME280_temperature;BME280_humidity;BME280_pressure;Samples;Min_cycle;Max_cycle;Signal;HPM_P1;HPM_P2
2023/08/12 05:04:55;;;;;;;0.00;0.00;;;;;;;;;;6225242;22;20036;-92
2023/08/12 10:09:15;;;;;;;0.10;0.10;;;;;;;;;;6232743;22;20054;-90
2023/08/12 10:22:02;;;;;;;0.00;0.00;;;;;;;;;;6239009;23;20020;-91
2023/08/12 10:24:32;;;;;;;0.03;0.03;;;;;;;;;;6229662;22;20019;-91
2023/08/12 10:26:58;;;;;;;0.05;0.05;;;;;;;;;;6198198;23;20013;-90
2023/08/12 10:29:26;;;;;;;0.08;0.08;;;;;;;;;;6225374;23;20019;-89
2023/08/12 10:31:58;;;;;;;0.10;0.10;;;;;;;;;;6201482;23;20017;-88
2023/08/12 10:37:15;;;;;;;0.10;0.10;;;;;;;;;;6225059;23;20028;-88
2023/08/12 10:39:51;;;;;;;0.10;0.10;;;;;;;;;;6235979;22;20017;-90
2023/08/12 10:46:10;;;;;;;0.10;0.10;;;;;;;;;;6222595;22;20021;-88
2023/08/12 10:48:36;;;;;;;0.10;0.10;;;;;;;;;;6228569;23;20004;-90
2023/08/12 10:51:04;;;;;;;0.00;0.00;;;;;;;;;;6195997;23;20024;-91
2023/08/12 10:53:39;;;;;;;0.10;0.10;;;;;;;;;;6194534;23;20096;-88
2023/08/12 10:56:11;;;;;;;0.00;0.00;;;;;;;;;;6198962;23;20343;-89
2023/08/12 10:58:49;;;;;;;0.00;0.00;;;;;;;;;;6199119;23;20091;-88
2023/08/12 11:01:37;;;;;;;0.08;0.08;;;;;;;;;;6198822;23;20042;-89
2023/08/12 11:04:16;;;;;;;0.10;0.10;;;;;;;;;;6196795;23;20021;-88
2023/08/12 11:06:46;;;;;;;0.00;0.00;;;;;;;;;;6201196;23;20004;-90
2023/08/12 11:09:17;;;;;;;0.13;0.13;;;;;;;;;;6200086;22;20021;-88
2023/08/12 11:11:43;;;;;;;0.10;0.10;;;;;;;;;;6200636;23;20016;-88
2023/08/12 11:14:15;;;;;;;0.10;0.10;;;;;;;;;;6201815;23;20028;-91
2023/08/12 11:16:44;;;;;;;0.10;0.10;;;;;;;;;;6331127;22;20454;-90
2023/08/12 11:19:43;;;;;;;0.08;0.08;;;;;;;;;;6203846;23;20034;-90
2023/08/12 11:22:12;;;;;;;0.20;0.20;;;;;;;;;;6204508;23;20036;-90
2023/08/12 11:25:07;;;;;;;0.20;0.20;;;;;;;;;;6202152;23;20056;-90
2023/08/12 11:27:41;;;;;;;0.10;0.10;;;;;;;;;;6202299;23;20016;-91
2023/08/12 11:30:10;;;;;;;0.00;0.00;;;;;;;;;;6203693;22;20045;-90
2023/08/12 11:32:37;;;;;;;0.10;0.10;;;;;;;;;;6200909;23;20085;-91
2023/08/12 11:35:05;;;;;;;0.20;0.20;;;;;;;;;;6228305;23;20021;-90
2023/08/12 11:37:32;;;;;;;0.00;0.00;;;;;;;;;;6204066;23;20016;-90
2023/08/12 11:40:09;;;;;;;0.10;0.10;;;;;;;;;;6203449;23;20042;-91
2023/08/12 11:45:42;;;;;;;0.15;0.15;;;;;;;;;;6223015;23;20197;-88
2023/08/12 11:48:10;;;;;;;0.10;0.10;;;;;;;;;;6192846;23;20065;-89
2023/08/12 11:50:36;;;;;;;0.10;0.10;;;;;;;;;;6193622;23;20009;-89
2023/08/12 11:53:02;;;;;;;0.20;0.20;;;;;;;;;;6194009;23;20020;-89
2023/08/12 11:55:32;;;;;;;0.10;0.10;;;;;;;;;;6222258;23;20024;-90
2023/08/12 11:57:58;;;;;;;0.10;0.10;;;;;;;;;;6195404;23;20024;-89
2023/08/12 12:00:36;;;;;;;0.10;0.10;;;;;;;;;;6199332;22;20017;-92
2023/08/12 12:03:03;;;;;;;0.10;0.10;;;;;;;;;;6200184;23;20042;-90
2023/08/12 12:05:30;;;;;;;0.10;0.10;;;;;;;;;;6200227;23;20028;-90
2023/08/12 12:07:57;;;;;;;0.10;0.10;;;;;;;;;;6304697;22;20328;-92
2023/08/12 12:10:49;;;;;;;0.05;0.05;;;;;;;;;;6201466;22;20020;-91
2023/08/12 12:13:30;;;;;;;0.17;0.17;;;;;;;;;;6201290;22;20055;-94
2023/08/12 12:16:15;;;;;;;0.10;0.10;;;;;;;;;;6204311;23;20043;-91
2023/08/12 12:19:07;;;;;;;0.10;0.10;;;;;;;;;;6175084;23;20017;-94
2023/08/12 12:22:03;;;;;;;0.10;0.10;;;;;;;;;;6172308;23;20021;-93
2023/08/12 12:27:56;;;;;;;0.00;0.00;;;;;;;;;;6260622;22;20020;-95
2023/08/12 12:30:40;;;;;;;0.20;0.20;;;;;;;;;;6297941;22;20011;-96
2023/08/12 12:33:34;;;;;;;0.10;0.10;;;;;;;;;;6301533;22;20022;-93
2023/08/12 12:36:03;;;;;;;0.10;0.10;;;;;;;;;;6231590;22;20052;-94
2023/08/12 12:38:29;;;;;;;0.00;0.00;;;;;;;;;;6206290;23;20084;-95
2023/08/12 12:41:05;;;;;;;0.00;0.00;;;;;;;;;;6195928;23;20021;-93
2023/08/12 12:43:34;;;;;;;0.10;0.10;;;;;;;;;;6231827;23;20009;-94
2023/08/12 12:46:27;;;;;;;0.10;0.10;;;;;;;;;;6231975;22;20005;-95
2023/08/12 12:49:16;;;;;;;0.10;0.10;;;;;;;;;;6210889;22;20016;-95
2023/08/12 12:51:52;;;;;;;0.10;0.10;;;;;;;;;;6233163;22;20024;-95
2023/08/12 12:57:57;;;;;;;0.10;0.10;;;;;;;;;;6308610;22;20068;-93
2023/08/12 13:00:50;;;;;;;;;;;;;;;;;;6176894;23;20029;-92
2023/08/12 13:03:16;;;;;;;0.10;0.10;;;;;;;;;;6169780;23;19912;-95
2023/08/12 13:05:42;;;;;;;0.00;0.00;;;;;;;;;;6238491;22;20030;-92
2023/08/12 13:08:08;;;;;;;0.05;0.05;;;;;;;;;;6239760;23;20017;-95
2023/08/12 13:10:34;;;;;;;0.03;0.03;;;;;;;;;;6193290;23;20013;-92
2023/08/12 13:13:00;;;;;;;0.08;0.08;;;;;;;;;;6192589;22;20065;-95
2023/08/12 13:15:26;;;;;;;0.03;0.03;;;;;;;;;;6194502;23;20008;-94
2023/08/12 13:17:53;;;;;;;0.00;0.00;;;;;;;;;;6195442;23;20347;-95
2023/08/12 13:20:23;;;;;;;0.10;0.10;;;;;;;;;;6199255;22;20016;-93
2023/08/12 13:22:50;;;;;;;0.00;0.00;;;;;;;;;;6203562;23;20024;-94
2023/08/12 13:25:16;;;;;;;0.10;0.10;;;;;;;;;;6194833;23;20017;-95
2023/08/12 13:27:43;;;;;;;0.10;0.10;;;;;;;;;;6195375;23;20017;-93
2023/08/12 13:30:11;;;;;;;0.10;0.10;;;;;;;;;;6192198;23;20028;-94
2023/08/12 13:32:39;;;;;;;0.10;0.10;;;;;;;;;;6192149;23;20046;-95
2023/08/12 13:35:06;;;;;;;0.20;0.20;;;;;;;;;;6193211;23;20016;-93
2023/08/12 13:37:35;;;;;;;0.10;0.10;;;;;;;;;;6192972;23;20055;-94
2023/08/12 13:40:01;;;;;;;0.00;0.00;;;;;;;;;;6296451;22;20020;-94
2023/08/12 13:42:28;;;;;;;0.00;0.00;;;;;;;;;;6191522;23;20017;-95
2023/08/12 13:44:54;;;;;;;0.00;0.00;;;;;;;;;;6192719;23;20020;-94
2023/08/12 13:47:20;;;;;;;0.00;0.00;;;;;;;;;;6191051;23;20077;-94
2023/08/12 13:49:46;;;;;;;0.10;0.10;;;;;;;;;;6190696;23;20016;-92
2023/08/12 13:52:12;;;;;;;0.10;0.10;;;;;;;;;;6298023;22;20504;-93
2023/08/12 13:54:38;;;;;;;0.10;0.10;;;;;;;;;;6192614;23;20531;-91
2023/08/12 13:57:05;;;;;;;0.00;0.00;;;;;;;;;;6191262;23;20439;-94
2023/08/12 13:59:31;;;;;;;0.20;0.20;;;;;;;;;;6189912;23;20013;-93
2023/08/12 14:01:57;;;;;;;0.00;0.00;;;;;;;;;;6189504;23;20016;-93
2023/08/12 14:04:24;;;;;;;0.10;0.10;;;;;;;;;;6190158;23;20046;-92
2023/08/12 14:06:50;;;;;;;0.10;0.10;;;;;;;;;;6190016;23;20017;-92
2023/08/12 14:09:18;;;;;;;0.10;0.10;;;;;;;;;;6191066;23;20048;-91
2023/08/12 14:11:44;;;;;;;0.00;0.00;;;;;;;;;;6190922;23;20023;-91
2023/08/12 14:14:10;;;;;;;0.10;0.10;;;;;;;;;;6189087;22;20020;-92
2023/08/12 14:16:36;;;;;;;0.10;0.10;;;;;;;;;;6189073;23;20016;-92
2023/08/12 14:19:03;;;;;;;0.10;0.10;;;;;;;;;;6320999;22;20020;-93
2023/08/12 14:21:30;;;;;;;0.22;0.22;;;;;;;;;;6189567;23;20017;-91
2023/08/12 14:23:56;;;;;;;0.20;0.20;;;;;;;;;;6189746;23;20408;-92
2023/08/12 14:26:22;;;;;;;0.10;0.10;;;;;;;;;;6189652;23;20401;-92
2023/08/12 14:28:59;;;;;;;0.20;0.20;;;;;;;;;;6189011;23;20332;-93
2023/08/12 14:31:32;;;;;;;0.15;0.15;;;;;;;;;;6192415;23;20048;-91
2023/08/12 14:34:23;;;;;;;0.10;0.10;;;;;;;;;;6191828;23;20056;-91
2023/08/12 14:36:49;;;;;;;0.10;0.10;;;;;;;;;;6191043;23;20020;-92
2023/08/12 14:39:15;;;;;;;0.10;0.10;;;;;;;;;;6189080;23;20017;-91
2023/08/12 14:41:42;;;;;;;0.03;0.03;;;;;;;;;;6189858;23;20096;-91
2023/08/12 14:44:08;;;;;;;0.10;0.10;;;;;;;;;;6189834;23;20016;-91
2023/08/12 14:46:34;;;;;;;0.10;0.10;;;;;;;;;;6188524;23;20090;-95
2023/08/12 14:49:01;;;;;;;0.00;0.00;;;;;;;;;;6190255;23;20042;-94
2023/08/12 14:51:29;;;;;;;0.10;0.10;;;;;;;;;;6189790;23;20024;-91
2023/08/12 14:53:56;;;;;;;0.10;0.10;;;;;;;;;;6214721;23;20023;-92
2023/08/12 14:56:22;;;;;;;0.10;0.10;;;;;;;;;;6188564;23;20020;-92
2023/08/12 14:58:48;;;;;;;0.30;0.30;;;;;;;;;;6187957;23;20107;-91
2023/08/12 15:01:16;;;;;;;0.28;0.28;;;;;;;;;;6186843;23;20013;-91
2023/08/12 15:03:42;;;;;;;0.20;0.20;;;;;;;;;;6187141;23;20016;-93
2023/08/12 15:06:08;;;;;;;0.20;0.20;;;;;;;;;;6187880;23;20466;-91
2023/08/12 15:08:34;;;;;;;0.17;0.17;;;;;;;;;;6188936;23;20020;-93
2023/08/12 15:11:00;;;;;;;0.00;0.00;;;;;;;;;;6189620;23;20012;-90
2023/08/12 15:13:26;;;;;;;0.00;0.00;;;;;;;;;;6189526;22;20016;-92
2023/08/12 15:15:52;;;;;;;0.00;0.00;;;;;;;;;;6187891;23;20013;-94
2023/08/12 15:18:19;;;;;;;0.20;0.20;;;;;;;;;;6188646;23;20016;-92
2023/08/12 15:20:45;;;;;;;0.00;0.00;;;;;;;;;;6187565;23;20344;-90
2023/08/12 15:23:11;;;;;;;0.03;0.03;;;;;;;;;;6189291;23;20351;-91
2023/08/12 15:25:37;;;;;;;0.00;0.00;;;;;;;;;;6189032;23;20023;-91
2023/08/12 15:28:04;;;;;;;0.05;0.05;;;;;;;;;;6188291;23;20103;-91
2023/08/12 15:30:30;;;;;;;0.08;0.08;;;;;;;;;;6188221;23;20024;-92
2023/08/12 15:32:56;;;;;;;0.10;0.10;;;;;;;;;;6188850;23;20393;-91
2023/08/12 15:35:23;;;;;;;0.00;0.00;;;;;;;;;;6189056;23;20359;-92
2023/08/12 15:37:49;;;;;;;0.00;0.00;;;;;;;;;;6189043;23;20021;-92
2023/08/12 15:40:15;;;;;;;0.10;0.10;;;;;;;;;;6189078;23;20019;-91
2023/08/12 15:42:42;;;;;;;0.05;0.05;;;;;;;;;;6188016;23;20017;-89
2023/08/12 15:45:09;;;;;;;0.13;0.13;;;;;;;;;;6188557;23;20017;-93
2023/08/12 15:47:35;;;;;;;0.10;0.10;;;;;;;;;;6188693;23;20017;-91
2023/08/12 15:50:01;;;;;;;0.17;0.17;;;;;;;;;;6188511;23;20100;-90
2023/08/12 15:52:29;;;;;;;0.10;0.10;;;;;;;;;;6188287;23;20377;-91
2023/08/12 15:54:55;;;;;;;0.10;0.10;;;;;;;;;;6188574;23;20020;-92
2023/08/12 15:57:21;;;;;;;0.00;0.00;;;;;;;;;;6187577;23;20077;-93
2023/08/12 15:59:47;;;;;;;0.03;0.03;;;;;;;;;;6188644;23;20017;-91
2023/08/12 16:02:15;;;;;;;0.00;0.00;;;;;;;;;;6187583;23;20048;-90
2023/08/12 16:04:41;;;;;;;0.20;0.20;;;;;;;;;;6188827;23;20021;-90
2023/08/12 16:07:07;;;;;;;0.10;0.10;;;;;;;;;;6213314;23;20095;-92
2023/08/12 16:09:33;;;;;;;0.05;0.05;;;;;;;;;;6189033;23;20022;-90
2023/08/12 16:11:59;;;;;;;0.10;0.10;;;;;;;;;;6187088;23;20026;-92
2023/08/12 16:14:25;;;;;;;0.00;0.00;;;;;;;;;;6185863;22;20100;-90
2023/08/12 16:16:51;;;;;;;0.20;0.20;;;;;;;;;;6187293;23;20012;-90
2023/08/12 16:19:21;;;;;;;0.08;0.08;;;;;;;;;;6186589;23;20073;-91
2023/08/12 16:21:47;;;;;;;0.05;0.05;;;;;;;;;;6212481;23;20023;-92
2023/08/12 16:24:13;;;;;;;0.00;0.00;;;;;;;;;;6319254;22;20070;-91
2023/08/12 16:26:39;;;;;;;0.10;0.10;;;;;;;;;;6187592;23;20025;-90
2023/08/12 16:29:05;;;;;;;0.10;0.10;;;;;;;;;;6213224;23;20046;-90
2023/08/12 16:31:31;;;;;;;0.00;0.00;;;;;;;;;;6188013;23;20024;-91
2023/08/12 16:33:57;;;;;;;0.10;0.10;;;;;;;;;;6189023;23;20020;-91
2023/08/12 16:36:23;;;;;;;0.10;0.10;;;;;;;;;;6214204;23;20355;-92
2023/08/12 16:38:49;;;;;;;0.10;0.10;;;;;;;;;;6188851;23;20040;-91
2023/08/12 16:41:17;;;;;;;0.05;0.05;;;;;;;;;;6214568;23;20017;-92
2023/08/12 16:43:44;;;;;;;0.10;0.10;;;;;;;;;;6188931;23;20059;-91
2023/08/12 16:46:10;;;;;;;0.20;0.20;;;;;;;;;;6188599;23;20368;-91
2023/08/12 16:48:36;;;;;;;0.00;0.00;;;;;;;;;;6188665;23;20021;-92
2023/08/12 16:51:03;;;;;;;0.15;0.15;;;;;;;;;;6188684;23;20474;-91
2023/08/12 16:53:29;;;;;;;0.10;0.10;;;;;;;;;;6187464;23;20443;-90
2023/08/12 16:55:55;;;;;;;0.17;0.17;;;;;;;;;;6187739;23;20013;-92
2023/08/12 16:58:21;;;;;;;0.10;0.10;;;;;;;;;;6187853;23;20084;-90
2023/08/12 17:00:47;;;;;;;0.10;0.10;;;;;;;;;;6186137;23;20061;-91
2023/08/12 17:03:14;;;;;;;0.10;0.10;;;;;;;;;;6186469;23;20104;-90
2023/08/12 17:05:40;;;;;;;0.10;0.10;;;;;;;;;;6187361;23;20017;-89
2023/08/12 17:08:08;;;;;;;0.08;0.08;;;;;;;;;;6187305;23;20051;-90
2023/08/12 17:10:37;;;;;;;0.00;0.00;;;;;;;;;;6187242;23;20530;-91
2023/08/12 17:13:03;;;;;;;0.00;0.00;;;;;;;;;;6186494;22;20096;-91
2023/08/12 17:15:29;;;;;;;0.10;0.10;;;;;;;;;;6187369;23;20020;-91
2023/08/12 17:17:55;;;;;;;0.00;0.00;;;;;;;;;;6187629;23;20013;-90
2023/08/12 17:20:21;;;;;;;0.00;0.00;;;;;;;;;;6187079;23;20012;-92
2023/08/12 17:22:47;;;;;;;0.10;0.10;;;;;;;;;;6186364;23;20013;-90
2023/08/12 17:25:14;;;;;;;0.05;0.05;;;;;;;;;;6188259;23;20017;-91
2023/08/12 17:27:40;;;;;;;0.05;0.05;;;;;;;;;;6189368;23;20051;-90
2023/08/12 17:30:06;;;;;;;0.10;0.10;;;;;;;;;;6189927;23;20017;-91
2023/08/12 17:32:32;;;;;;;0.10;0.10;;;;;;;;;;6188669;23;20045;-93
2023/08/12 17:34:58;;;;;;;0.03;0.03;;;;;;;;;;6189022;23;20473;-91
2023/08/12 17:37:24;;;;;;;0.10;0.10;;;;;;;;;;6188806;23;20324;-90
2023/08/12 17:39:50;;;;;;;0.00;0.00;;;;;;;;;;6188858;23;20052;-91
2023/08/12 17:42:17;;;;;;;0.20;0.20;;;;;;;;;;6189186;23;20020;-92
2023/08/12 17:44:44;;;;;;;0.17;0.17;;;;;;;;;;6190540;23;20474;-92
2023/08/12 17:47:12;;;;;;;0.10;0.10;;;;;;;;;;6189582;23;20378;-91
2023/08/12 17:49:38;;;;;;;0.03;0.03;;;;;;;;;;6189631;23;20016;-91
2023/08/12 17:52:04;;;;;;;0.00;0.00;;;;;;;;;;6188373;23;20027;-91
2023/08/12 17:54:30;;;;;;;0.20;0.20;;;;;;;;;;6189815;23;20027;-92
2023/08/12 17:56:56;;;;;;;0.00;0.00;;;;;;;;;;6189872;23;20020;-92
2023/08/12 17:59:22;;;;;;;0.20;0.20;;;;;;;;;;6190036;23;20013;-93
2023/08/12 18:01:48;;;;;;;0.10;0.10;;;;;;;;;;6189790;23;20037;-91
2023/08/12 18:04:14;;;;;;;0.00;0.00;;;;;;;;;;6190469;23;20020;-91
2023/08/12 18:06:40;;;;;;;0.10;0.10;;;;;;;;;;6190845;23;20412;-92
2023/08/12 18:09:07;;;;;;;0.10;0.10;;;;;;;;;;6190865;23;20109;-93
2023/08/12 18:11:33;;;;;;;0.00;0.00;;;;;;;;;;6189766;23;20403;-93
2023/08/12 18:13:59;;;;;;;0.00;0.00;;;;;;;;;;6189505;22;20017;-93
2023/08/12 18:16:25;;;;;;;0.00;0.00;;;;;;;;;;6191015;23;20021;-93
2023/08/12 18:18:51;;;;;;;0.03;0.03;;;;;;;;;;6190633;23;20024;-93
2023/08/12 18:21:17;;;;;;;0.10;0.10;;;;;;;;;;6190744;23;20077;-92
2023/08/12 18:23:43;;;;;;;0.10;0.10;;;;;;;;;;6190684;23;20052;-93
2023/08/12 18:26:09;;;;;;;0.00;0.00;;;;;;;;;;6190551;23;20024;-92
2023/08/12 18:28:36;;;;;;;0.00;0.00;;;;;;;;;;6190229;23;20016;-91
2023/08/12 18:31:02;;;;;;;0.00;0.00;;;;;;;;;;6188921;23;20052;-91
2023/08/12 18:33:28;;;;;;;0.00;0.00;;;;;;;;;;6188192;23;20028;-90
2023/08/12 18:35:54;;;;;;;0.10;0.10;;;;;;;;;;6189656;23;20013;-92
2023/08/12 18:38:20;;;;;;;0.00;0.00;;;;;;;;;;6188252;23;20017;-92
2023/08/12 18:40:46;;;;;;;0.10;0.10;;;;;;;;;;6188422;23;20017;-92
2023/08/12 18:43:12;;;;;;;0.00;0.00;;;;;;;;;;6189140;23;20020;-92
2023/08/12 18:45:38;;;;;;;0.00;0.00;;;;;;;;;;6190021;23;20021;-91
2023/08/12 18:48:05;;;;;;;0.13;0.13;;;;;;;;;;6214609;23;20039;-93
2023/08/12 18:50:31;;;;;;;0.00;0.00;;;;;;;;;;6190031;23;20379;-91
2023/08/12 18:52:58;;;;;;;0.10;0.10;;;;;;;;;;6189022;23;20016;-92
2023/08/12 18:55:24;;;;;;;0.10;0.10;;;;;;;;;;6190099;23;20012;-94
2023/08/12 18:57:50;;;;;;;0.10;0.10;;;;;;;;;;6190672;23;20020;-92
2023/08/12 19:00:16;;;;;;;0.00;0.00;;;;;;;;;;6190876;23;20013;-93
2023/08/12 19:02:43;;;;;;;0.03;0.03;;;;;;;;;;6190349;23;20044;-91
2023/08/12 19:05:09;;;;;;;0.03;0.03;;;;;;;;;;6297492;22;20008;-94
2023/08/12 19:07:35;;;;;;;0.10;0.10;;;;;;;;;;6190071;23;20397;-93
2023/08/12 19:10:01;;;;;;;0.13;0.13;;;;;;;;;;6190259;23;20023;-93
2023/08/12 19:12:27;;;;;;;0.10;0.10;;;;;;;;;;6188929;23;20013;-93
2023/08/12 19:14:53;;;;;;;0.10;0.10;;;;;;;;;;6191747;22;20030;-92
2023/08/12 19:17:19;;;;;;;0.10;0.10;;;;;;;;;;6190792;23;20012;-93
2023/08/12 19:20:04;;;;;;;0.00;0.00;;;;;;;;;;6189902;23;20347;-93
2023/08/12 19:22:30;;;;;;;0.00;0.00;;;;;;;;;;6214664;23;20381;-92
2023/08/12 19:24:56;;;;;;;0.10;0.10;;;;;;;;;;6191689;23;20017;-93
2023/08/12 19:27:23;;;;;;;0.10;0.10;;;;;;;;;;6214931;23;20020;-93
2023/08/12 19:29:49;;;;;;;0.17;0.17;;;;;;;;;;6189361;23;20056;-92
2023/08/12 19:32:15;;;;;;;0.10;0.10;;;;;;;;;;6189520;23;20017;-95
2023/08/12 19:34:42;;;;;;;0.10;0.10;;;;;;;;;;6190022;23;20052;-93
2023/08/12 19:37:08;;;;;;;0.10;0.10;;;;;;;;;;6190518;23;20023;-93
2023/08/12 19:39:34;;;;;;;0.10;0.10;;;;;;;;;;6190247;23;20017;-94
2023/08/12 19:42:00;;;;;;;0.10;0.10;;;;;;;;;;6190534;23;20048;-94
2023/08/12 19:44:26;;;;;;;0.10;0.10;;;;;;;;;;6190678;23;20052;-93
2023/08/12 19:46:52;;;;;;;0.10;0.10;;;;;;;;;;6189772;23;20051;-93
2023/08/12 19:49:18;;;;;;;0.25;0.25;;;;;;;;;;6188499;23;20103;-93
2023/08/12 19:51:44;;;;;;;0.20;0.20;;;;;;;;;;6187871;23;20028;-94
2023/08/12 19:54:10;;;;;;;0.10;0.10;;;;;;;;;;6188663;23;20028;-95
2023/08/12 19:56:36;;;;;;;0.10;0.10;;;;;;;;;;6190163;23;20017;-93
2023/08/12 19:59:02;;;;;;;0.00;0.00;;;;;;;;;;6188626;23;20013;-92
2023/08/12 20:01:29;;;;;;;0.10;0.10;;;;;;;;;;6214211;23;20439;-91
2023/08/12 20:03:55;;;;;;;0.10;0.10;;;;;;;;;;6190286;23;20017;-91
2023/08/12 20:06:21;;;;;;;0.00;0.00;;;;;;;;;;6190647;23;20101;-91
2023/08/12 20:08:47;;;;;;;0.10;0.10;;;;;;;;;;6190293;23;20047;-92
2023/08/12 20:11:13;;;;;;;0.10;0.10;;;;;;;;;;6189522;23;20056;-93
2023/08/12 20:13:39;;;;;;;0.20;0.20;;;;;;;;;;6188488;22;20059;-93
2023/08/12 20:16:06;;;;;;;0.10;0.10;;;;;;;;;;6189636;23;20068;-94
2023/08/12 20:18:32;;;;;;;0.10;0.10;;;;;;;;;;6189673;23;20013;-94
2023/08/12 20:20:58;;;;;;;0.00;0.00;;;;;;;;;;6189623;23;20023;-90
2023/08/12 20:23:26;;;;;;;0.10;0.10;;;;;;;;;;6189817;23;20005;-91
2023/08/12 20:25:52;;;;;;;0.10;0.10;;;;;;;;;;6189802;23;20328;-93
2023/08/12 20:28:18;;;;;;;0.20;0.20;;;;;;;;;;6189297;23;20020;-93
2023/08/12 20:30:44;;;;;;;0.17;0.17;;;;;;;;;;6189504;23;20459;-94
2023/08/12 20:33:10;;;;;;;0.10;0.10;;;;;;;;;;6188800;23;20044;-92
2023/08/12 20:35:36;;;;;;;0.20;0.20;;;;;;;;;;6189230;23;20013;-93
2023/08/12 20:38:03;;;;;;;0.00;0.00;;;;;;;;;;6190223;23;20019;-94
2023/08/12 20:40:29;;;;;;;0.10;0.10;;;;;;;;;;6190338;23;20013;-93
2023/08/12 20:42:55;;;;;;;0.10;0.10;;;;;;;;;;6189269;23;20048;-92
2023/08/12 20:45:22;;;;;;;0.15;0.15;;;;;;;;;;6190466;23;20023;-93
2023/08/12 20:47:48;;;;;;;0.20;0.20;;;;;;;;;;6190560;23;20352;-93
2023/08/12 20:50:14;;;;;;;0.10;0.10;;;;;;;;;;6214150;23;20477;-91
2023/08/12 20:52:40;;;;;;;0.20;0.20;;;;;;;;;;6190192;23;20047;-93
2023/08/12 20:55:06;;;;;;;0.10;0.10;;;;;;;;;;6189502;23;20060;-95
2023/08/12 20:57:32;;;;;;;0.10;0.10;;;;;;;;;;6188125;23;20356;-94
2023/08/12 20:59:58;;;;;;;0.10;0.10;;;;;;;;;;6189708;23;20044;-93
2023/08/12 21:02:25;;;;;;;0.10;0.10;;;;;;;;;;6188658;23;20017;-94
2023/08/12 21:04:51;;;;;;;0.10;0.10;;;;;;;;;;6190482;23;20077;-93
2023/08/12 21:07:17;;;;;;;0.10;0.10;;;;;;;;;;6189901;23;20028;-93
2023/08/12 21:09:43;;;;;;;0.10;0.10;;;;;;;;;;6190103;23;20100;-94
2023/08/12 21:12:10;;;;;;;0.10;0.10;;;;;;;;;;6296567;22;20029;-94
2023/08/12 21:14:36;;;;;;;0.00;0.00;;;;;;;;;;6192066;22;20020;-94
2023/08/12 21:17:03;;;;;;;0.05;0.05;;;;;;;;;;6191271;23;20013;-94
2023/08/12 21:19:29;;;;;;;0.00;0.00;;;;;;;;;;6189408;23;20021;-93
2023/08/12 21:21:55;;;;;;;0.08;0.08;;;;;;;;;;6191953;23;20024;-93
2023/08/12 21:24:21;;;;;;;0.10;0.10;;;;;;;;;;6191603;23;20016;-94
2023/08/12 21:26:47;;;;;;;0.10;0.10;;;;;;;;;;6189345;23;20045;-93
2023/08/12 21:29:13;;;;;;;0.10;0.10;;;;;;;;;;6191382;23;20202;-91
2023/08/12 21:31:39;;;;;;;0.10;0.10;;;;;;;;;;6190239;23;20016;-93
2023/08/12 21:34:05;;;;;;;0.10;0.10;;;;;;;;;;6188592;23;20016;-93
2023/08/12 21:36:31;;;;;;;0.20;0.20;;;;;;;;;;6189241;23;20061;-93
2023/08/12 21:39:01;;;;;;;0.10;0.10;;;;;;;;;;6214073;23;20047;-93
2023/08/12 21:41:27;;;;;;;0.10;0.10;;;;;;;;;;6189025;23;20017;-93
2023/08/12 21:43:53;;;;;;;0.10;0.10;;;;;;;;;;6188843;23;20109;-94
2023/08/12 21:46:19;;;;;;;0.10;0.10;;;;;;;;;;6189808;23;20028;-94
2023/08/12 21:48:46;;;;;;;0.15;0.15;;;;;;;;;;6188390;23;20023;-93
2023/08/12 21:51:12;;;;;;;0.00;0.00;;;;;;;;;;6189698;23;20021;-91
2023/08/12 21:53:39;;;;;;;0.10;0.10;;;;;;;;;;6191335;23;20443;-95
2023/08/12 21:56:05;;;;;;;0.20;0.20;;;;;;;;;;6189797;23;20118;-96
2023/08/12 21:58:31;;;;;;;0.10;0.10;;;;;;;;;;6189312;23;20059;-94
2023/08/12 22:00:57;;;;;;;0.00;0.00;;;;;;;;;;6188153;23;20066;-91
2023/08/12 22:03:23;;;;;;;0.03;0.03;;;;;;;;;;6189261;23;20016;-93
2023/08/12 22:05:49;;;;;;;0.10;0.10;;;;;;;;;;6189606;23;20024;-92
2023/08/12 22:08:15;;;;;;;0.08;0.08;;;;;;;;;;6187605;23;20058;-92
2023/08/12 22:10:41;;;;;;;0.10;0.10;;;;;;;;;;6188294;23;20069;-93
2023/08/12 22:13:07;;;;;;;0.20;0.20;;;;;;;;;;6190030;22;20023;-94
2023/08/12 22:15:33;;;;;;;0.10;0.10;;;;;;;;;;6192061;23;20066;-94
2023/08/12 22:17:59;;;;;;;0.10;0.10;;;;;;;;;;6190757;23;20052;-96
2023/08/12 22:20:27;;;;;;;0.25;0.25;;;;;;;;;;6191025;23;20016;-95
2023/08/12 22:22:53;;;;;;;0.10;0.10;;;;;;;;;;6191063;23;20043;-94
2023/08/12 22:25:19;;;;;;;0.10;0.10;;;;;;;;;;6191632;23;20044;-94
2023/08/12 22:27:45;;;;;;;0.10;0.10;;;;;;;;;;6191801;23;20117;-94
2023/08/12 22:30:12;;;;;;;0.03;0.03;;;;;;;;;;6190824;23;20048;-96
2023/08/12 22:32:38;;;;;;;0.10;0.10;;;;;;;;;;6191770;23;20017;-96
2023/08/12 22:35:04;;;;;;;0.20;0.20;;;;;;;;;;6192607;23;20016;-95
2023/08/12 22:37:32;;;;;;;0.10;0.10;;;;;;;;;;6192197;23;20021;-95
2023/08/12 22:39:58;;;;;;;0.05;0.05;;;;;;;;;;6193157;23;20024;-95
2023/08/12 22:42:24;;;;;;;0.10;0.10;;;;;;;;;;6192031;23;20066;-96
2023/08/12 22:44:50;;;;;;;0.05;0.05;;;;;;;;;;6192837;23;20025;-94
2023/08/12 22:47:16;;;;;;;0.10;0.10;;;;;;;;;;6191466;23;20072;-94
2023/08/12 22:49:42;;;;;;;0.20;0.20;;;;;;;;;;6190682;23;20043;-92
2023/08/12 22:52:08;;;;;;;0.10;0.10;;;;;;;;;;6191086;23;20039;-94
2023/08/12 22:54:34;;;;;;;0.10;0.10;;;;;;;;;;6192884;23;20074;-95
2023/08/12 22:57:00;;;;;;;0.20;0.20;;;;;;;;;;6193790;23;20021;-94
2023/08/12 22:59:26;;;;;;;0.08;0.08;;;;;;;;;;6192679;23;20017;-92
2023/08/12 23:01:53;;;;;;;0.08;0.08;;;;;;;;;;6191647;23;20012;-94
2023/08/12 23:04:19;;;;;;;0.13;0.13;;;;;;;;;;6191620;23;20021;-94
2023/08/12 23:06:45;;;;;;;0.10;0.10;;;;;;;;;;6297392;22;20028;-94
2023/08/12 23:09:11;;;;;;;0.10;0.10;;;;;;;;;;6190401;23;20490;-95
2023/08/12 23:11:37;;;;;;;0.10;0.10;;;;;;;;;;6189959;23;20116;-95
2023/08/12 23:14:03;;;;;;;0.20;0.20;;;;;;;;;;6191680;22;20016;-93
2023/08/12 23:16:30;;;;;;;0.10;0.10;;;;;;;;;;6191692;23;20016;-94
2023/08/12 23:18:56;;;;;;;0.10;0.10;;;;;;;;;;6190388;23;20035;-93
2023/08/12 23:21:22;;;;;;;0.20;0.20;;;;;;;;;;6215359;23;20095;-93
2023/08/12 23:23:48;;;;;;;0.20;0.20;;;;;;;;;;6189419;23;20020;-94
2023/08/12 23:26:14;;;;;;;0.10;0.10;;;;;;;;;;6189947;23;20021;-93
2023/08/12 23:28:40;;;;;;;0.10;0.10;;;;;;;;;;6190879;23;20111;-92
2023/08/12 23:31:06;;;;;;;0.10;0.10;;;;;;;;;;6190550;23;20020;-95
2023/08/12 23:33:32;;;;;;;0.15;0.15;;;;;;;;;;6189493;23;20395;-94
2023/08/12 23:35:58;;;;;;;0.10;0.10;;;;;;;;;;6190152;23;20024;-95
2023/08/12 23:38:24;;;;;;;0.08;0.08;;;;;;;;;;6190403;23;20091;-95
2023/08/12 23:40:50;;;;;;;0.10;0.10;;;;;;;;;;6190201;23;20050;-96
2023/08/12 23:43:16;;;;;;;0.10;0.10;;;;;;;;;;6191880;23;20023;-94
2023/08/12 23:45:43;;;;;;;0.00;0.00;;;;;;;;;;6193613;23;20028;-94
2023/08/12 23:48:09;;;;;;;0.20;0.20;;;;;;;;;;6192876;23;20017;-95
2023/08/12 23:50:38;;;;;;;0.10;0.10;;;;;;;;;;6193416;23;20012;-95
2023/08/12 23:53:04;;;;;;;0.20;0.20;;;;;;;;;;6194631;23;20021;-95
2023/08/12 23:55:30;;;;;;;0.10;0.10;;;;;;;;;;6193422;23;20009;-94
2023/08/12 23:57:56;;;;;;;0.10;0.10;;;;;;;;;;6192947;23;20023;-91
